createdAt,value
2018-05-29T00:00:26.691Z,21.86
2018-05-29T00:02:53.049Z,21.77
2018-05-29T00:05:20.294Z,21.70
2018-05-29T00:07:48.517Z,21.63
2018-05-29T00:10:14.942Z,21.67
2018-05-29T00:12:41.650Z,21.50
2018-05-29T00:15:08.077Z,21.56
2018-05-29T00:17:35.227Z,21.62
2018-05-29T00:20:02.439Z,21.54
2018-05-29T00:22:28.868Z,21.50
2018-05-29T00:24:55.264Z,21.33
2018-05-29T00:27:21.616Z,21.21
2018-05-29T00:29:48.073Z,21.14
2018-05-29T00:32:14.514Z,21.11
2018-05-29T00:34:40.906Z,21.04
2018-05-29T00:37:07.251Z,21.03
2018-05-29T00:39:33.952Z,20.98
2018-05-29T00:42:00.341Z,21.00
2018-05-29T00:44:26.705Z,21.06
2018-05-29T00:46:53.887Z,21.18
2018-05-29T00:49:20.270Z,21.04
2018-05-29T00:51:46.626Z,20.94
2018-05-29T00:54:13.085Z,21.01
2018-05-29T00:56:39.505Z,21.04
2018-05-29T00:59:06.226Z,20.99
2018-05-29T01:01:33.368Z,21.09
2018-05-29T01:04:00.726Z,20.96
2018-05-29T01:06:27.859Z,20.80
2018-05-29T01:08:54.219Z,20.74
2018-05-29T01:11:20.693Z,20.71
2018-05-29T01:13:47.129Z,20.83
2018-05-29T01:16:13.615Z,20.79
2018-05-29T01:18:40.096Z,20.81
2018-05-29T01:21:06.575Z,20.75
2018-05-29T01:23:33.831Z,20.78
2018-05-29T01:26:00.942Z,20.84
2018-05-29T01:28:27.382Z,20.71
2018-05-29T01:30:53.747Z,20.64
2018-05-29T01:33:20.155Z,20.68
2018-05-29T01:35:46.659Z,20.63
2018-05-29T01:38:13.005Z,20.64
2018-05-29T01:40:41.224Z,20.56
2018-05-29T01:43:07.643Z,20.54
2018-05-29T01:45:34.800Z,20.48
2018-05-29T01:48:02.642Z,20.43
2018-05-29T01:50:29.816Z,20.43
2018-05-29T01:52:56.999Z,20.51
2018-05-29T01:55:23.521Z,20.47
2018-05-29T01:57:50.060Z,20.54
2018-05-29T02:00:16.458Z,20.53
2018-05-29T02:02:43.575Z,20.52
2018-05-29T02:05:09.963Z,20.45
2018-05-29T02:07:36.314Z,20.45
2018-05-29T02:10:02.892Z,20.35
2018-05-29T02:12:29.668Z,20.32
2018-05-29T02:14:56.201Z,20.22
2018-05-29T02:17:22.679Z,20.23
2018-05-29T02:19:49.072Z,20.31
2018-05-29T02:22:15.484Z,20.22
2018-05-29T02:24:42.657Z,20.10
2018-05-29T02:27:09.047Z,20.02
2018-05-29T02:29:35.444Z,20.09
2018-05-29T02:32:01.851Z,19.92
2018-05-29T02:34:28.223Z,19.83
2018-05-29T02:36:54.663Z,19.89
2018-05-29T02:39:21.115Z,19.99
2018-05-29T02:41:47.465Z,19.99
2018-05-29T02:44:13.898Z,19.91
2018-05-29T02:46:40.266Z,19.86
2018-05-29T02:49:06.623Z,19.90
2018-05-29T02:51:32.993Z,19.91
2018-05-29T02:54:00.099Z,19.96
2018-05-29T02:56:33.491Z,19.87
2018-05-29T02:58:59.907Z,19.85
2018-05-29T03:01:26.274Z,19.87
2018-05-29T03:03:52.673Z,19.93
2018-05-29T03:06:19.045Z,20.02
2018-05-29T03:08:46.191Z,19.93
2018-05-29T03:11:12.609Z,19.92
2018-05-29T03:13:39.132Z,19.95
2018-05-29T03:16:05.820Z,20.00
2018-05-29T03:18:32.954Z,20.05
2018-05-29T03:21:00.179Z,20.08
2018-05-29T03:23:26.558Z,20.17
2018-05-29T03:25:52.988Z,20.23
2018-05-29T03:28:19.410Z,20.27
2018-05-29T03:30:45.850Z,20.26
2018-05-29T03:33:13.022Z,20.27
2018-05-29T03:35:39.444Z,20.17
2018-05-29T03:38:05.949Z,20.31
2018-05-29T03:40:32.375Z,20.34
2018-05-29T03:42:58.769Z,20.48
2018-05-29T03:45:25.268Z,20.47
2018-05-29T03:47:52.394Z,20.50
2018-05-29T03:50:18.919Z,20.57
2018-05-29T03:52:45.317Z,20.59
2018-05-29T03:55:12.864Z,20.63
2018-05-29T03:57:40.110Z,20.59
2018-05-29T04:00:06.942Z,20.66
2018-05-29T04:02:33.406Z,20.66
2018-05-29T04:04:59.880Z,20.70
2018-05-29T04:07:26.322Z,20.67
2018-05-29T04:09:53.608Z,20.72
2018-05-29T04:12:20.733Z,20.80
2018-05-29T04:14:47.877Z,20.78
2018-05-29T04:17:15.349Z,20.85
2018-05-29T04:19:42.483Z,20.84
2018-05-29T04:22:09.701Z,20.84
2018-05-29T04:24:36.114Z,20.74
2018-05-29T04:27:02.550Z,20.68
2018-05-29T04:29:29.029Z,20.70
2018-05-29T04:31:56.407Z,20.71
2018-05-29T04:34:22.876Z,20.64
2018-05-29T04:36:49.573Z,20.59
2018-05-29T04:39:16.784Z,20.50
2018-05-29T04:41:43.272Z,20.59
2018-05-29T04:44:09.701Z,20.62
2018-05-29T04:46:36.177Z,20.55
2018-05-29T04:49:02.636Z,20.49
2018-05-29T04:51:29.005Z,20.46
2018-05-29T04:53:55.385Z,20.54
2018-05-29T04:56:21.861Z,20.69
2018-05-29T04:58:48.380Z,20.54
2018-05-29T05:01:15.491Z,20.51
2018-05-29T05:03:42.182Z,20.49
2018-05-29T05:06:08.821Z,20.58
2018-05-29T05:08:35.197Z,20.59
2018-05-29T05:11:01.665Z,20.61
2018-05-29T05:13:28.094Z,20.81
2018-05-29T05:15:55.209Z,20.91
2018-05-29T05:18:21.640Z,21.14
2018-05-29T05:20:48.343Z,21.26
2018-05-29T05:23:14.732Z,21.39
2018-05-29T05:25:41.103Z,21.23
2018-05-29T05:28:07.849Z,21.30
2018-05-29T05:30:34.259Z,21.50
2018-05-29T05:33:01.358Z,21.94
2018-05-29T05:35:27.809Z,21.86
2018-05-29T05:37:54.190Z,21.60
2018-05-29T05:40:20.679Z,21.66
2018-05-29T05:42:47.085Z,21.76
2018-05-29T05:45:13.466Z,21.76
2018-05-29T05:47:40.610Z,21.78
2018-05-29T05:50:07.742Z,21.73
2018-05-29T05:52:34.102Z,21.56
2018-05-29T05:55:01.237Z,21.76
2018-05-29T05:57:27.612Z,21.65
2018-05-29T05:59:54.036Z,21.71
2018-05-29T06:02:20.388Z,21.87
2018-05-29T06:04:46.785Z,21.79
2018-05-29T06:07:14.038Z,21.86
2018-05-29T06:09:40.414Z,21.91
2018-05-29T06:12:06.806Z,22.23
2018-05-29T06:14:33.175Z,22.32
2018-05-29T06:16:59.704Z,22.56
2018-05-29T06:19:26.204Z,22.95
2018-05-29T06:21:52.810Z,22.71
2018-05-29T06:24:19.355Z,22.81
2018-05-29T06:26:45.735Z,22.86
2018-05-29T06:29:12.109Z,23.09
2018-05-29T06:31:38.668Z,23.16
2018-05-29T06:34:05.793Z,23.40
2018-05-29T06:36:32.670Z,23.46
2018-05-29T06:39:00.288Z,23.50
2018-05-29T06:41:26.734Z,23.75
2018-05-29T06:43:53.502Z,23.96
2018-05-29T06:46:20.613Z,24.37
2018-05-29T06:48:46.989Z,24.42
2018-05-29T06:51:13.378Z,24.79
2018-05-29T06:53:39.869Z,24.92
2018-05-29T06:56:06.370Z,24.64
2018-05-29T06:58:33.501Z,24.70
2018-05-29T07:01:00.173Z,24.62
2018-05-29T07:03:27.306Z,24.56
2018-05-29T07:05:54.506Z,25.07
2018-05-29T07:08:21.104Z,25.04
2018-05-29T07:10:48.236Z,24.86
2018-05-29T07:13:15.362Z,24.91
2018-05-29T07:15:41.812Z,24.86
2018-05-29T07:18:08.415Z,25.00
2018-05-29T07:20:34.822Z,25.19
2018-05-29T07:23:01.180Z,25.32
2018-05-29T07:25:27.584Z,25.27
2018-05-29T07:27:54.005Z,25.79
2018-05-29T07:30:21.112Z,26.01
2018-05-29T07:32:47.794Z,25.95
2018-05-29T07:35:14.959Z,26.01
2018-05-29T07:37:41.365Z,26.03
2018-05-29T07:40:08.466Z,25.97
2018-05-29T07:42:34.882Z,26.29
2018-05-29T07:45:01.215Z,26.49
2018-05-29T07:47:28.704Z,26.80
2018-05-29T07:49:55.045Z,26.52
2018-05-29T07:52:21.468Z,26.77
2018-05-29T07:54:47.903Z,26.81
2018-05-29T07:57:14.272Z,26.65
2018-05-29T07:59:40.691Z,26.49
2018-05-29T08:02:07.831Z,26.22
2018-05-29T08:04:34.966Z,26.17
2018-05-29T08:07:01.445Z,26.05
2018-05-29T08:09:27.813Z,26.18
2018-05-29T08:11:54.196Z,26.62
2018-05-29T08:14:21.356Z,26.60
2018-05-29T08:16:47.763Z,26.62
2018-05-29T08:19:15.042Z,26.73
2018-05-29T08:21:41.420Z,26.65
2018-05-29T08:24:07.864Z,26.73
2018-05-29T08:26:34.298Z,26.53
2018-05-29T08:29:00.661Z,26.17
2018-05-29T08:31:27.813Z,26.30
2018-05-29T08:33:54.959Z,26.05
2018-05-29T08:36:21.594Z,26.13
2018-05-29T08:38:48.710Z,25.85
2018-05-29T08:41:15.061Z,25.79
2018-05-29T08:43:42.220Z,26.17
2018-05-29T08:46:09.344Z,26.23
2018-05-29T08:48:35.870Z,26.28
2018-05-29T08:51:02.257Z,26.21
2018-05-29T08:53:28.648Z,26.53
2018-05-29T08:55:55.084Z,26.60
2018-05-29T08:58:21.572Z,26.55
2018-05-29T09:00:47.948Z,26.65
2018-05-29T09:03:14.331Z,26.97
2018-05-29T09:05:40.812Z,27.27
2018-05-29T09:08:07.177Z,27.16
2018-05-29T09:10:33.544Z,27.14
2018-05-29T09:12:59.907Z,27.38
2018-05-29T09:15:26.291Z,26.54
2018-05-29T09:17:52.716Z,26.82
2018-05-29T09:20:19.442Z,26.83
2018-05-29T09:22:45.856Z,26.76
2018-05-29T09:25:12.971Z,26.99
2018-05-29T09:27:39.393Z,27.45
2018-05-29T09:30:05.732Z,27.85
2018-05-29T09:32:32.162Z,27.84
2018-05-29T09:34:58.752Z,27.20
2018-05-29T09:37:25.906Z,27.34
2018-05-29T09:39:53.026Z,27.20
2018-05-29T09:42:19.379Z,26.91
2018-05-29T09:44:46.595Z,27.34
2018-05-29T09:47:13.060Z,27.30
2018-05-29T09:49:40.161Z,26.80
2018-05-29T09:52:06.572Z,26.79
2018-05-29T09:54:33.062Z,27.16
2018-05-29T09:56:59.461Z,26.72
2018-05-29T09:59:25.878Z,26.57
2018-05-29T10:01:52.289Z,26.10
2018-05-29T10:04:19.026Z,25.74
2018-05-29T10:06:45.762Z,26.08
2018-05-29T10:09:12.874Z,26.32
2018-05-29T10:11:39.361Z,26.52
2018-05-29T10:14:05.825Z,26.96
2018-05-29T10:16:32.528Z,27.25
2018-05-29T10:18:58.921Z,27.22
2018-05-29T10:21:26.045Z,27.01
2018-05-29T10:23:52.419Z,26.88
2018-05-29T10:26:19.552Z,27.13
2018-05-29T10:28:46.229Z,27.76
2018-05-29T10:31:12.588Z,28.06
2018-05-29T10:33:39.387Z,28.52
2018-05-29T10:36:06.514Z,28.37
2018-05-29T10:38:33.057Z,28.41
2018-05-29T10:41:00.204Z,28.41
2018-05-29T10:43:26.563Z,28.68
2018-05-29T10:45:53.295Z,28.42
2018-05-29T10:48:19.745Z,28.91
2018-05-29T10:50:46.247Z,29.30
2018-05-29T10:53:13.409Z,29.58
2018-05-29T10:55:40.519Z,29.24
2018-05-29T10:58:06.876Z,28.66
2018-05-29T11:00:34.241Z,28.42
2018-05-29T11:05:33.820Z,28.55
2018-05-29T11:08:00.268Z,29.14
2018-05-29T11:10:26.776Z,28.82
2018-05-29T11:12:53.118Z,28.93
2018-05-29T11:15:19.521Z,28.92
2018-05-29T11:17:46.061Z,28.32
2018-05-29T11:20:12.916Z,28.29
2018-05-29T11:22:39.303Z,29.47
2018-05-29T11:25:06.405Z,29.49
2018-05-29T11:27:32.789Z,28.93
2018-05-29T11:30:00.023Z,29.60
2018-05-29T11:32:27.165Z,29.80
2018-05-29T11:34:53.829Z,29.26
2018-05-29T11:37:20.942Z,28.78
2018-05-29T11:39:47.413Z,28.45
2018-05-29T11:42:14.613Z,28.29
2018-05-29T11:44:40.996Z,28.56
2018-05-29T11:47:07.616Z,28.68
2018-05-29T11:49:34.746Z,28.27
2018-05-29T11:52:01.144Z,28.89
2018-05-29T11:54:27.545Z,29.51
2018-05-29T11:56:54.015Z,29.34
2018-05-29T11:59:20.383Z,28.68
2018-05-29T12:01:46.801Z,29.48
2018-05-29T12:04:13.246Z,29.41
2018-05-29T12:06:39.658Z,29.74
2018-05-29T12:09:06.050Z,30.37
2018-05-29T12:11:32.463Z,29.00
2018-05-29T12:13:59.829Z,28.38
2018-05-29T12:16:27.017Z,28.74
2018-05-29T12:18:53.497Z,28.43
2018-05-29T12:21:20.978Z,28.17
2018-05-29T12:23:47.399Z,27.92
2018-05-29T12:26:14.635Z,28.24
2018-05-29T12:28:40.995Z,27.89
2018-05-29T12:31:07.400Z,27.69
2018-05-29T12:33:34.555Z,27.32
2018-05-29T12:36:03.266Z,28.26
2018-05-29T12:38:36.725Z,28.29
2018-05-29T12:41:03.086Z,28.20
2018-05-29T12:43:29.456Z,27.05
2018-05-29T12:45:55.901Z,27.06
2018-05-29T12:48:22.253Z,26.10
2018-05-29T12:50:50.124Z,25.66
2018-05-29T12:53:16.523Z,25.24
2018-05-29T12:55:42.891Z,25.52
2018-05-29T12:58:10.033Z,25.82
2018-05-29T13:00:36.407Z,26.24
2018-05-29T13:03:02.837Z,26.40
2018-05-29T13:05:29.281Z,26.70
2018-05-29T13:07:56.337Z,26.42
2018-05-29T13:10:22.896Z,26.40
2018-05-29T13:12:49.283Z,26.67
2018-05-29T13:15:15.677Z,26.48
2018-05-29T13:17:43.597Z,27.31
2018-05-29T13:20:09.969Z,27.75
2018-05-29T13:22:36.407Z,26.76
2018-05-29T13:25:02.839Z,26.31
2018-05-29T13:27:29.230Z,25.74
2018-05-29T13:29:55.764Z,25.11
2018-05-29T13:32:22.157Z,25.24
2018-05-29T13:34:49.257Z,24.78
2018-05-29T13:37:15.714Z,24.26
2018-05-29T13:39:42.381Z,24.19
2018-05-29T13:42:09.512Z,24.10
2018-05-29T13:44:36.614Z,23.99
2018-05-29T13:47:03.049Z,23.64
2018-05-29T13:49:30.196Z,23.62
2018-05-29T13:51:57.017Z,23.68
2018-05-29T13:54:23.391Z,23.44
2018-05-29T13:56:49.831Z,23.23
2018-05-29T13:59:16.338Z,23.36
2018-05-29T14:01:42.718Z,23.33
2018-05-29T14:04:09.983Z,23.25
2018-05-29T14:06:37.292Z,22.84
2018-05-29T14:09:04.687Z,22.66
2018-05-29T14:11:31.059Z,22.86
2018-05-29T14:13:57.439Z,22.56
2018-05-29T14:16:23.803Z,22.45
2018-05-29T14:18:50.177Z,22.15
2018-05-29T14:21:16.586Z,22.11
2018-05-29T14:23:43.054Z,22.08
2018-05-29T14:26:09.408Z,22.03
2018-05-29T14:28:36.495Z,21.97
2018-05-29T14:31:03.326Z,21.74
2018-05-29T14:33:29.719Z,22.06
2018-05-29T14:35:56.114Z,22.14
2018-05-29T14:38:22.835Z,22.03
2018-05-29T14:40:49.188Z,21.64
2018-05-29T14:43:15.554Z,21.61
2018-05-29T14:45:41.942Z,21.51
2018-05-29T14:48:08.405Z,21.23
2018-05-29T14:50:34.777Z,21.28
2018-05-29T14:53:01.213Z,21.27
2018-05-29T14:55:27.578Z,21.28
2018-05-29T14:57:53.965Z,21.30
2018-05-29T15:00:20.399Z,21.12
2018-05-29T15:02:47.517Z,21.06
2018-05-29T15:05:14.012Z,21.28
2018-05-29T15:07:40.621Z,21.36
2018-05-29T15:10:07.726Z,21.50
2018-05-29T15:12:34.170Z,21.84
2018-05-29T15:15:02.029Z,21.90
2018-05-29T15:17:28.716Z,22.13
2018-05-29T15:19:55.110Z,22.32
2018-05-29T15:22:21.473Z,22.63
2018-05-29T15:24:47.841Z,23.02
2018-05-29T15:27:14.246Z,23.06
2018-05-29T15:29:40.616Z,23.47
2018-05-29T15:32:07.064Z,23.58
2018-05-29T15:34:33.454Z,23.68
2018-05-29T15:36:59.928Z,23.66
2018-05-29T15:39:26.605Z,23.76
2018-05-29T15:41:53.813Z,23.77
2018-05-29T15:44:20.171Z,23.87
2018-05-29T15:46:46.567Z,24.29
2018-05-29T15:49:13.016Z,24.22
2018-05-29T15:51:39.364Z,24.49
2018-05-29T15:54:05.813Z,24.44
2018-05-29T15:56:32.922Z,24.66
2018-05-29T15:58:59.382Z,24.73
2018-05-29T16:01:26.757Z,25.07
2018-05-29T16:03:53.860Z,25.26
2018-05-29T16:06:20.244Z,26.05
2018-05-29T16:08:46.788Z,26.32
2018-05-29T16:11:13.193Z,27.61
2018-05-29T16:13:40.447Z,30.47
2018-05-29T16:16:07.755Z,33.65
2018-05-29T16:18:34.233Z,34.19
2018-05-29T16:21:01.333Z,34.75
2018-05-29T16:23:27.747Z,37.53
2018-05-29T16:25:54.094Z,36.61
2018-05-29T16:28:20.477Z,37.54
2018-05-29T16:30:47.698Z,33.97
2018-05-29T16:33:14.101Z,32.39
2018-05-29T16:35:40.665Z,33.18
2018-05-29T16:38:07.070Z,31.21
2018-05-29T16:40:33.609Z,32.14
2018-05-29T16:43:01.310Z,32.93
2018-05-29T16:45:27.730Z,34.87
2018-05-29T16:47:54.415Z,35.86
2018-05-29T16:50:21.938Z,35.89
2018-05-29T16:52:48.542Z,35.54
2018-05-29T16:55:15.030Z,35.22
2018-05-29T16:57:42.140Z,36.94
2018-05-29T17:00:08.561Z,36.03
2018-05-29T17:02:34.917Z,36.09
2018-05-29T17:05:01.354Z,36.74
2018-05-29T17:07:27.708Z,37.00
2018-05-29T17:09:54.913Z,37.28
2018-05-29T17:12:21.279Z,36.48
2018-05-29T17:14:48.420Z,36.48
2018-05-29T17:17:14.997Z,35.72
2018-05-29T17:19:41.408Z,35.50
2018-05-29T17:22:08.507Z,34.59
2018-05-29T17:24:34.929Z,35.46
2018-05-29T17:27:01.643Z,36.65
2018-05-29T17:29:28.073Z,35.51
2018-05-29T17:31:54.509Z,35.17
2018-05-29T17:34:21.633Z,35.49
2018-05-29T17:36:48.741Z,34.79
2018-05-29T17:39:15.311Z,34.08
2018-05-29T17:41:41.762Z,32.15
2018-05-29T17:44:08.863Z,31.99
2018-05-29T17:46:35.263Z,32.21
2018-05-29T17:49:02.225Z,31.46
2018-05-29T17:51:28.672Z,31.44
2018-05-29T17:53:55.086Z,29.26
2018-05-29T17:56:21.524Z,27.78
2018-05-29T17:58:47.961Z,27.55
2018-05-29T18:01:14.327Z,26.65
2018-05-29T18:03:40.708Z,25.99
2018-05-29T18:06:07.117Z,25.49
2018-05-29T18:08:35.104Z,25.34
2018-05-29T18:11:01.704Z,25.52
2018-05-29T18:13:28.878Z,25.26
2018-05-29T18:15:55.397Z,25.08
2018-05-29T18:18:22.767Z,24.93
2018-05-29T18:20:55.007Z,24.98
2018-05-29T18:23:21.534Z,25.15
2018-05-29T18:25:48.814Z,24.80
2018-05-29T18:28:16.044Z,24.63
2018-05-29T18:30:42.529Z,24.53
2018-05-29T18:33:10.012Z,24.70
2018-05-29T18:35:36.461Z,24.55
2018-05-29T18:38:03.483Z,24.53
2018-05-29T18:40:30.058Z,24.56
2018-05-29T18:42:56.479Z,24.43
2018-05-29T18:45:22.872Z,24.41
2018-05-29T18:47:49.435Z,24.38
2018-05-29T18:50:15.999Z,24.38
2018-05-29T18:52:43.086Z,24.17
2018-05-29T18:55:09.611Z,24.06
2018-05-29T18:57:36.620Z,23.92
2018-05-29T19:00:03.837Z,23.69
2018-05-29T19:02:30.477Z,23.56
2018-05-29T19:04:56.928Z,23.42
2018-05-29T19:07:23.370Z,23.30
2018-05-29T19:09:50.310Z,23.43
2018-05-29T19:12:16.679Z,23.28
2018-05-29T19:14:43.824Z,23.25
2018-05-29T19:17:12.947Z,23.00
2018-05-29T19:19:39.504Z,23.07
2018-05-29T19:22:06.279Z,23.09
2018-05-29T19:24:33.477Z,23.02
2018-05-29T19:27:00.810Z,22.89
2018-05-29T19:29:28.061Z,22.67
2018-05-29T19:31:55.599Z,22.56
2018-05-29T19:34:22.800Z,22.41
2018-05-29T19:36:49.206Z,22.26
2018-05-29T19:39:15.640Z,22.41
2018-05-29T19:41:42.720Z,22.45
2018-05-29T19:44:09.237Z,22.40
2018-05-29T19:46:35.757Z,22.25
2018-05-29T19:49:02.202Z,22.26
2018-05-29T19:51:28.651Z,22.15
2018-05-29T19:53:55.232Z,22.06
2018-05-29T19:56:23.246Z,21.90
2018-05-29T19:58:49.889Z,21.86
2018-05-29T20:01:16.369Z,21.79
2018-05-29T20:03:42.950Z,21.73
2018-05-29T20:06:09.397Z,21.69
2018-05-29T20:08:35.793Z,21.93
2018-05-29T20:11:02.277Z,21.92
2018-05-29T20:13:28.796Z,21.87
2018-05-29T20:15:55.437Z,21.80
2018-05-29T20:18:22.879Z,21.60
2018-05-29T20:20:49.626Z,21.66
2018-05-29T20:23:16.581Z,21.53
2018-05-29T20:25:42.991Z,21.50
2018-05-29T20:28:09.392Z,21.40
2018-05-29T20:30:36.533Z,21.36
2018-05-29T20:33:03.649Z,21.44
2018-05-29T20:35:30.844Z,21.49
2018-05-29T20:37:58.336Z,21.40
2018-05-29T20:40:24.722Z,21.37
2018-05-29T20:42:52.035Z,21.18
2018-05-29T20:45:18.904Z,21.17
2018-05-29T20:47:45.287Z,21.22
2018-05-29T20:50:12.452Z,21.12
2018-05-29T20:52:39.144Z,21.16
2018-05-29T20:55:06.374Z,21.31
2018-05-29T20:57:34.387Z,21.27
2018-05-29T21:00:01.593Z,21.19
2018-05-29T21:02:28.070Z,21.09
2018-05-29T21:04:54.530Z,21.20
2018-05-29T21:07:20.967Z,21.21
2018-05-29T21:09:47.414Z,21.10
2018-05-29T21:12:13.897Z,20.95
2018-05-29T21:14:40.342Z,20.87
2018-05-29T21:17:07.393Z,20.76
2018-05-29T21:19:33.993Z,20.73
2018-05-29T21:22:02.161Z,20.78
2018-05-29T21:24:28.709Z,20.67
2018-05-29T21:26:55.999Z,20.54
2018-05-29T21:29:22.741Z,20.53
2018-05-29T21:31:49.225Z,20.69
2018-05-29T21:34:15.752Z,20.65
2018-05-29T21:36:42.151Z,20.56
2018-05-29T21:39:08.761Z,20.54
2018-05-29T21:41:35.201Z,20.46
2018-05-29T21:44:01.592Z,20.48
2018-05-29T21:46:28.275Z,20.49
2018-05-29T21:48:54.767Z,20.51
2018-05-29T21:51:21.179Z,20.42
2018-05-29T21:53:47.608Z,20.38
2018-05-29T21:56:14.049Z,20.33
2018-05-29T21:58:40.470Z,20.37
2018-05-29T22:01:07.141Z,20.33
2018-05-29T22:03:33.534Z,20.27
2018-05-29T22:05:59.979Z,20.27
2018-05-29T22:08:26.392Z,20.25
2018-05-29T22:10:52.795Z,20.22
2018-05-29T22:13:19.316Z,20.18
2018-05-29T22:15:46.597Z,20.14
2018-05-29T22:18:12.989Z,20.12
2018-05-29T22:20:39.729Z,20.09
2018-05-29T22:23:06.189Z,20.00
2018-05-29T22:25:33.328Z,20.01
2018-05-29T22:28:00.439Z,19.99
2018-05-29T22:30:26.883Z,19.84
2018-05-29T22:32:53.247Z,19.73
2018-05-29T22:35:19.803Z,19.68
2018-05-29T22:37:46.177Z,19.61
2018-05-29T22:40:12.689Z,19.52
2018-05-29T22:42:39.168Z,19.47
2018-05-29T22:45:06.308Z,19.36
2018-05-29T22:47:32.742Z,19.33
2018-05-29T22:49:59.149Z,19.24
2018-05-29T22:52:25.568Z,19.14
2018-05-29T22:54:52.044Z,19.04
2018-05-29T22:57:18.698Z,18.99
2018-05-29T22:59:45.541Z,18.95
2018-05-29T23:02:12.767Z,18.97
2018-05-29T23:04:39.178Z,19.03
2018-05-29T23:07:05.697Z,19.06
2018-05-29T23:09:32.319Z,19.06
2018-05-29T23:11:58.710Z,19.07
2018-05-29T23:14:25.149Z,19.12
2018-05-29T23:16:52.329Z,19.22
2018-05-29T23:19:18.836Z,19.20
2018-05-29T23:21:46.050Z,19.36
2018-05-29T23:24:12.876Z,19.29
2018-05-29T23:26:39.289Z,19.32
2018-05-29T23:29:05.695Z,19.22
2018-05-29T23:31:32.914Z,19.19
2018-05-29T23:33:59.320Z,19.19
2018-05-29T23:36:25.925Z,19.16
2018-05-29T23:38:54.089Z,19.07
2018-05-29T23:41:21.300Z,18.94
2018-05-29T23:43:47.677Z,18.90
2018-05-29T23:46:14.830Z,18.73
2018-05-29T23:48:42.426Z,18.75
2018-05-29T23:51:08.770Z,18.85
2018-05-29T23:53:35.161Z,18.83
2018-05-29T23:56:01.512Z,18.85
2018-05-29T23:58:27.957Z,18.83
